»·PEaware :: DCM180 KMRY-KBUR

DCM180 :: KMRY-KBUR

FLIGHT INFORMATION

Flight Status: Arrived
Operator:
DotCom
More flights by this operator :: More flights under this callsign
Pilot: Etienne B. (28927)
Aircraft: AIRBUS A320
(A320)
More flights by this aircraft type
Origin: KMRY Monterey Peninsula
United States
Destination: KBUR Bob Hope-Burbank
United States
More flights between these airports :: More routes between these airports
Route: +SERFR RDHOT ROKKR2
File this flight plan on PilotEdge
Remarks: RMK / SIMBRIEF
Altitude:
(Current/Filed)
27,000ft
Speed:
(Current/Filed)
431kts
Departed: 16-May-20 04:15 PM
Arrived: 16-May-20 04:59 PM
Distance/Time
Traveled:
223nm/0:44
Distance/Time
To Go:
Arrived

Flight Plot

Page will automatically refresh every two minutes.

Flight plan parsing failed; only flown route is shown


Map Options




Map Legend


Flown Route
Filed Route
Departure Airport
Arrival Airport
Navaid (VOR, NDB)
Fix

Horizontal Profiles

Position Reports

Time Latitude Longitude Heading Altitude Ground
Speed
16-May-20 15:54 36.587220 -121.849258 232 190ft 0kts
16-May-20 15:55 36.587220 -121.849258 232 190ft 0kts
16-May-20 15:56 36.587220 -121.849258 232 190ft 0kts
16-May-20 15:57 36.587220 -121.849258 232 190ft 0kts
16-May-20 15:58 36.587220 -121.849258 232 190ft 0kts
16-May-20 15:59 36.587220 -121.849258 232 190ft 0kts
16-May-20 16:00 36.587220 -121.849258 232 190ft 0kts
16-May-20 16:01 36.587220 -121.849258 232 190ft 0kts
16-May-20 16:02 36.587220 -121.849258 232 190ft 0kts
16-May-20 16:03 36.587220 -121.849258 232 190ft 0kts
16-May-20 16:04 36.587220 -121.849258 232 190ft 0kts
16-May-20 16:05 36.587220 -121.849258 232 190ft 0kts
16-May-20 16:06 36.587220 -121.849258 232 190ft 0kts
16-May-20 16:07 36.587506 -121.849075 177 188ft 2kts
16-May-20 16:08 36.587871 -121.849477 111 185ft 0kts
16-May-20 16:09 36.587877 -121.849494 111 184ft 0kts
16-May-20 16:10 36.587415 -121.848072 112 191ft 11kts
16-May-20 16:11 36.585501 -121.842919 111 226ft 17kts
16-May-20 16:12 36.583308 -121.836477 115 251ft 27kts
16-May-20 16:13 36.583277 -121.833502 312 230ft 4kts
16-May-20 16:14 36.594928 -121.864569 301 1207ft 156kts
16-May-20 16:15 36.630856 -121.896541 324 3915ft 171kts
16-May-20 16:16 36.668913 -121.871999 91 6517ft 222kts
16-May-20 16:17 36.620579 -121.807737 149 8584ft 291kts
16-May-20 16:18 36.550383 -121.750908 149 11090ft 327kts
16-May-20 16:19 36.468397 -121.684802 149 13047ft 365kts
16-May-20 16:20 36.381838 -121.615117 150 15400ft 377kts
16-May-20 16:21 36.292721 -121.543051 150 17500ft 389kts
16-May-20 16:22 36.200526 -121.470417 151 19384ft 400kts
16-May-20 16:23 36.105830 -121.394846 151 21097ft 411kts
16-May-20 16:24 36.030999 -121.286027 124 22780ft 431kts
16-May-20 16:25 35.971393 -121.157899 124 24624ft 431kts
16-May-20 16:26 35.911750 -121.030936 124 26515ft 427kts
16-May-20 16:27 35.852574 -120.905546 124 26952ft 423kts
16-May-20 16:28 35.793227 -120.780302 124 26956ft 425kts
16-May-20 16:29 35.733500 -120.654693 124 26955ft 424kts
16-May-20 16:30 35.673805 -120.529620 124 26955ft 424kts
16-May-20 16:31 35.613920 -120.404604 124 26956ft 424kts
16-May-20 16:32 35.536168 -120.301143 144 26969ft 414kts
16-May-20 16:33 35.448662 -120.209982 144 26971ft 412kts
16-May-20 16:34 35.361868 -120.119760 144 26987ft 410kts
16-May-20 16:35 35.275041 -120.029773 144 26978ft 408kts
16-May-20 16:36 35.188438 -119.940303 144 26968ft 408kts
16-May-20 16:37 35.102693 -119.851903 144 26402ft 396kts
16-May-20 16:38 35.019586 -119.766497 144 24606ft 386kts
16-May-20 16:39 34.938688 -119.683614 143 22833ft 376kts
16-May-20 16:40 34.862818 -119.600510 131 21079ft 370kts
16-May-20 16:41 34.798754 -119.504991 131 19372ft 360kts
16-May-20 16:42 34.736526 -119.411062 130 17732ft 350kts
16-May-20 16:43 34.677056 -119.320218 130 16103ft 340kts
16-May-20 16:44 34.623369 -119.228247 122 14540ft 331kts
16-May-20 16:45 34.576899 -119.134160 122 13029ft 321kts
16-May-20 16:46 34.524242 -119.050803 144 11606ft 307kts
16-May-20 16:47 34.457064 -118.989524 144 10312ft 298kts
16-May-20 16:48 34.393027 -118.927122 142 9055ft 292kts
16-May-20 16:49 34.366970 -118.839108 95 7827ft 289kts
16-May-20 16:50 34.360227 -118.744472 95 6631ft 279kts
16-May-20 16:51 34.353793 -118.652652 95 5445ft 270kts
16-May-20 16:52 34.348400 -118.569282 95 5055ft 236kts
16-May-20 16:53 34.334941 -118.495655 113 4756ft 220kts
16-May-20 16:54 34.310803 -118.435261 126 4086ft 185kts
16-May-20 16:55 34.281626 -118.392541 139 3004ft 158kts
16-May-20 16:56 34.248929 -118.370208 169 1769ft 137kts
16-May-20 16:57 34.215731 -118.361357 167 1004ft 134kts
16-May-20 16:58 34.198875 -118.356233 99 715ft 9kts
16-May-20 16:59 34.198847 -118.355935 97 714ft 0kts
16-May-20 17:01 34.197970 -118.355119 162 711ft 11kts
16-May-20 17:02 34.196845 -118.352887 173 704ft 0kts

Navigation Log

Ident Type
Flight plan parsing failed, navigation log unavailable